METAR Data
IDs: Format: Raw Decoded Include TAF

Data at: 0738 UTC 08 May 2021

ESOW 080720Z AUTO 26006KT 220V300 9999 NCD 07/00 Q1009